Time;durP1;ratioP1;P1;durP2;ratioP2;P2;SDS_P1;SDS_P2;PMS_P1;PMS_P2;Temp;Humidity;BMP_temperature;BMP_pressure;BME280_temperature;BME280_humidity;BME280_pressure;Samples;Min_cycle;Max_cycle;Signal;HPM_P1;HPM_P2
2022/10/11 05:00:35;;;;;;;19.80;14.33;;;16.30;97.20;;;;;;1667457;29;20662;-74
2022/10/11 05:01:26;;;;;;;18.15;14.50;;;16.30;97.20;;;;;;1673472;29;20229;-73
2022/10/11 05:02:18;;;;;;;15.40;13.77;;;16.30;97.20;;;;;;1674381;29;20212;-73
2022/10/11 05:03:09;;;;;;;16.23;14.50;;;16.30;97.20;;;;;;1668334;29;20206;-73
2022/10/11 05:04:00;;;;;;;17.83;15.50;;;16.30;97.20;;;;;;1668437;29;20206;-72
2022/10/11 05:04:51;;;;;;;19.33;15.07;;;16.30;97.20;;;;;;1668223;29;20210;-73
2022/10/11 05:05:43;;;;;;;15.83;13.70;;;16.30;97.20;;;;;;1668369;29;20211;-73
2022/10/11 05:06:33;;;;;;;18.25;14.65;;;16.30;97.20;;;;;;1670316;29;20214;-73
2022/10/11 05:07:25;;;;;;;19.17;15.33;;;16.30;97.20;;;;;;1674545;29;20202;-73
2022/10/11 05:08:16;;;;;;;24.42;14.93;;;16.30;97.20;;;;;;1674704;29;20844;-73
2022/10/11 05:09:08;;;;;;;18.60;14.70;;;16.30;97.20;;;;;;1674698;29;20568;-72
2022/10/11 05:09:58;;;;;;;22.48;16.63;;;16.30;97.20;;;;;;1674223;29;20884;-73
2022/10/11 05:10:58;;;;;;;23.17;15.77;;;16.30;97.20;;;;;;1674601;29;20245;-72
2022/10/11 05:11:49;;;;;;;17.20;15.10;;;16.30;97.20;;;;;;1674739;29;20465;-72
2022/10/11 05:12:41;;;;;;;16.93;15.20;;;16.30;97.20;;;;;;1674675;29;20289;-73
2022/10/11 05:13:33;;;;;;;19.75;14.73;;;16.30;97.20;;;;;;1674693;29;20233;-73
2022/10/11 05:14:25;;;;;;;19.25;15.13;;;16.30;97.20;;;;;;1674740;29;20800;-73
2022/10/11 05:15:16;;;;;;;20.08;15.50;;;16.30;97.20;;;;;;1674643;29;20229;-72
2022/10/11 05:16:09;;;;;;;23.03;15.30;;;16.30;97.20;;;;;;1674684;29;20210;-73
2022/10/11 05:16:59;;;;;;;19.08;16.10;;;16.30;97.20;;;;;;1674416;29;20613;-72
2022/10/11 05:17:51;;;;;;;20.80;15.90;;;16.30;97.20;;;;;;1672769;29;20224;-73
2022/10/11 05:18:42;;;;;;;17.83;15.68;;;16.30;97.20;;;;;;1670290;29;20210;-72
2022/10/11 05:19:34;;;;;;;22.13;15.50;;;16.30;97.20;;;;;;1675932;29;20202;-72
2022/10/11 05:20:25;;;;;;;22.92;15.70;;;16.30;97.20;;;;;;1675700;29;20453;-73
2022/10/11 05:21:19;;;;;;;18.85;16.00;;;16.30;97.20;;;;;;1675933;29;20235;-72
2022/10/11 05:22:09;;;;;;;21.92;18.25;;;16.30;97.20;;;;;;1675854;29;20210;-73
2022/10/11 05:23:01;;;;;;;18.63;15.80;;;16.30;97.20;;;;;;1675861;29;20296;-72
2022/10/11 05:23:54;;;;;;;20.23;16.40;;;16.30;97.20;;;;;;1675808;29;20210;-72
2022/10/11 05:24:46;;;;;;;18.77;15.25;;;16.30;97.20;;;;;;1674213;29;20206;-72
2022/10/11 05:25:37;;;;;;;23.50;15.85;;;16.30;97.20;;;;;;1668841;29;20222;-72
2022/10/11 05:26:29;;;;;;;18.97;16.73;;;16.30;97.20;;;;;;1669215;29;20201;-73
2022/10/11 05:27:19;;;;;;;20.33;15.05;;;16.30;97.20;;;;;;1669204;29;20207;-72
2022/10/11 05:28:11;;;;;;;19.40;15.73;;;16.30;97.20;;;;;;1670954;29;20366;-75
2022/10/11 05:29:02;;;;;;;19.77;15.88;;;16.30;97.20;;;;;;1675853;29;20245;-74
2022/10/11 05:29:54;;;;;;;26.00;17.77;;;16.30;97.20;;;;;;1675409;29;20206;-75
2022/10/11 05:30:44;;;;;;;19.60;17.48;;;16.30;97.20;;;;;;1682068;29;20481;-74
2022/10/11 05:31:37;;;;;;;20.60;15.90;;;16.40;97.20;;;;;;1698876;29;20211;-75
2022/10/11 05:32:28;;;;;;;17.90;15.52;;;16.30;97.20;;;;;;1699161;29;20204;-73
2022/10/11 05:33:20;;;;;;;23.47;16.07;;;16.30;97.20;;;;;;1695622;29;20207;-72
2022/10/11 05:34:11;;;;;;;22.25;16.50;;;16.30;97.20;;;;;;1695170;29;20211;-71
2022/10/11 05:35:04;;;;;;;18.90;16.23;;;16.30;97.20;;;;;;1695144;29;20210;-72
2022/10/11 05:35:55;;;;;;;22.52;16.83;;;16.30;97.20;;;;;;1695364;29;20208;-72
2022/10/11 05:36:46;;;;;;;27.33;17.70;;;16.30;97.20;;;;;;1695038;29;20239;-73
2022/10/11 05:37:37;;;;;;;20.20;16.17;;;16.30;97.20;;;;;;1695220;29;20469;-72
2022/10/11 05:38:29;;;;;;;19.30;15.90;;;16.30;97.20;;;;;;1695303;29;20196;-74
2022/10/11 05:39:19;;;;;;;23.58;16.27;;;16.30;97.20;;;;;;1694940;29;20214;-72
2022/10/11 05:40:12;;;;;;;21.47;16.60;;;16.30;97.20;;;;;;1694606;29;20203;-75
2022/10/11 05:41:03;;;;;;;18.98;17.00;;;16.30;97.20;;;;;;1695051;29;20203;-72
2022/10/11 05:41:55;;;;;;;24.92;16.45;;;16.30;97.20;;;;;;1695077;29;20689;-72
2022/10/11 05:42:46;;;;;;;20.55;15.38;;;16.30;97.20;;;;;;1695093;29;20219;-73
2022/10/11 05:43:38;;;;;;;20.73;16.87;;;16.30;97.20;;;;;;1695103;29;20286;-72
2022/10/11 05:44:28;;;;;;;21.70;15.60;;;16.30;97.20;;;;;;1695117;29;20277;-74
2022/10/11 05:45:20;;;;;;;21.17;15.30;;;16.30;97.20;;;;;;1695046;29;20297;-76
2022/10/11 05:46:11;;;;;;;18.98;16.90;;;16.30;97.20;;;;;;1695487;29;20218;-76
2022/10/11 05:47:05;;;;;;;17.75;14.90;;;16.30;97.20;;;;;;1694777;29;20204;-74
2022/10/11 05:47:55;;;;;;;20.63;15.38;;;16.40;97.20;;;;;;1694962;29;20208;-74
2022/10/11 05:48:47;;;;;;;21.80;16.90;;;16.40;97.20;;;;;;1694975;29;20202;-74
2022/10/11 05:49:38;;;;;;;18.95;16.30;;;16.40;97.20;;;;;;1693618;29;20207;-74
2022/10/11 05:50:29;;;;;;;24.20;16.47;;;16.40;97.20;;;;;;1693745;29;20211;-72
2022/10/11 05:51:20;;;;;;;24.15;16.92;;;16.40;97.20;;;;;;1700690;29;20265;-72
2022/10/11 05:52:12;;;;;;;21.83;16.87;;;16.30;97.20;;;;;;1700825;29;20211;-72
2022/10/11 05:53:03;;;;;;;23.75;16.40;;;16.40;97.20;;;;;;1695300;29;20239;-72
2022/10/11 05:53:55;;;;;;;20.58;17.13;;;16.30;97.20;;;;;;1694983;29;20200;-72
2022/10/11 05:54:46;;;;;;;22.60;16.88;;;16.30;97.20;;;;;;1690850;29;20196;-72
2022/10/11 05:55:39;;;;;;;22.67;16.43;;;16.30;97.20;;;;;;1687956;29;20363;-73
2022/10/11 05:56:29;;;;;;;24.05;17.63;;;16.30;97.20;;;;;;1689445;29;20865;-73
2022/10/11 05:57:21;;;;;;;25.07;17.37;;;16.30;97.20;;;;;;1694684;29;20583;-72
2022/10/11 05:58:14;;;;;;;20.95;16.52;;;16.40;97.20;;;;;;1695101;29;20314;-72
2022/10/11 05:59:06;;;;;;;24.05;16.70;;;16.40;97.20;;;;;;1695038;29;20214;-72
2022/10/11 05:59:57;;;;;;;19.17;15.73;;;16.40;97.20;;;;;;1694351;29;20222;-73
2022/10/11 06:00:48;;;;;;;26.23;15.90;;;16.40;97.20;;;;;;1694647;29;20230;-72
2022/10/11 06:01:39;;;;;;;22.73;16.50;;;16.40;97.20;;;;;;1694915;29;20204;-72
2022/10/11 06:02:33;;;;;;;20.73;17.00;;;16.30;97.20;;;;;;1694995;29;20206;-74
2022/10/11 06:03:24;;;;;;;21.00;16.33;;;16.40;97.20;;;;;;1694977;29;20211;-75
2022/10/11 06:04:17;;;;;;;21.87;15.37;;;16.40;97.20;;;;;;1694937;29;20212;-72
2022/10/11 06:05:08;;;;;;;26.52;16.20;;;16.40;97.20;;;;;;1695016;29;20699;-72
2022/10/11 06:06:02;;;;;;;19.98;15.55;;;16.30;97.20;;;;;;1695070;29;20568;-72
2022/10/11 06:06:52;;;;;;;21.08;15.82;;;16.30;97.20;;;;;;1694799;29;20212;-72
2022/10/11 06:07:44;;;;;;;22.33;16.40;;;16.30;97.20;;;;;;1694958;29;20278;-73
2022/10/11 06:08:35;;;;;;;24.92;16.63;;;16.30;97.20;;;;;;1695038;29;20258;-73
2022/10/11 06:09:27;;;;;;;20.77;17.40;;;16.30;97.20;;;;;;1695279;29;20650;-72
2022/10/11 06:10:18;;;;;;;22.33;16.20;;;16.30;97.20;;;;;;1694365;29;20219;-72
2022/10/11 06:11:14;;;;;;;21.60;16.90;;;16.30;97.20;;;;;;1694861;29;20200;-73
2022/10/11 06:12:05;;;;;;;20.92;17.15;;;16.30;97.20;;;;;;1694879;29;20192;-72
2022/10/11 06:12:57;;;;;;;19.17;17.17;;;16.30;97.20;;;;;;1694930;29;20630;-72
2022/10/11 06:13:48;;;;;;;22.48;17.95;;;16.30;97.20;;;;;;1694707;29;20207;-73
2022/10/11 06:14:40;;;;;;;23.50;17.70;;;16.30;97.20;;;;;;1694821;29;20210;-72
2022/10/11 06:15:30;;;;;;;21.65;17.10;;;16.30;97.20;;;;;;1694777;29;20220;-73
2022/10/11 06:16:22;;;;;;;24.80;17.33;;;16.30;97.20;;;;;;1694899;29;20204;-72
2022/10/11 06:17:13;;;;;;;20.92;17.63;;;16.30;97.20;;;;;;1694718;29;20305;-72
2022/10/11 06:18:06;;;;;;;27.63;18.60;;;16.30;97.20;;;;;;1694689;29;20303;-72
2022/10/11 06:18:57;;;;;;;25.88;17.02;;;16.30;97.20;;;;;;1694816;29;20587;-73
2022/10/11 06:19:48;;;;;;;26.70;17.57;;;16.30;97.20;;;;;;1694363;29;20636;-73
2022/10/11 06:20:39;;;;;;;28.63;17.60;;;16.30;97.20;;;;;;1694616;29;20231;-73
2022/10/11 06:21:31;;;;;;;21.43;17.47;;;16.30;97.20;;;;;;1694878;29;20203;-72
2022/10/11 06:22:22;;;;;;;27.30;20.55;;;16.30;97.20;;;;;;1694878;29;20215;-72
2022/10/11 06:23:14;;;;;;;23.30;18.63;;;16.30;97.20;;;;;;1694588;29;20287;-72
2022/10/11 06:24:05;;;;;;;21.08;17.77;;;16.30;97.20;;;;;;1694765;29;20680;-73
2022/10/11 06:24:57;;;;;;;21.17;16.50;;;16.30;97.20;;;;;;1694737;29;20203;-73
2022/10/11 06:25:55;;;;;;;22.70;17.30;;;16.30;97.20;;;;;;1695021;29;20259;-71
2022/10/11 06:26:48;;;;;;;22.05;17.67;;;16.30;97.20;;;;;;1694481;29;20199;-72
2022/10/11 06:27:39;;;;;;;22.13;17.40;;;16.30;97.20;;;;;;1694809;29;20666;-72
2022/10/11 06:28:31;;;;;;;21.60;16.60;;;16.30;97.20;;;;;;1694945;29;20563;-73
2022/10/11 06:29:22;;;;;;;19.77;17.67;;;16.30;97.20;;;;;;1694690;29;20211;-73
2022/10/11 06:30:14;;;;;;;22.40;16.80;;;16.30;97.20;;;;;;1693518;29;20206;-72
2022/10/11 06:31:05;;;;;;;27.17;18.40;;;16.30;97.20;;;;;;1690461;29;20587;-72
2022/10/11 06:31:57;;;;;;;22.17;16.70;;;16.30;97.20;;;;;;1694393;28;20223;-73
2022/10/11 06:32:48;;;;;;;27.13;17.90;;;16.30;97.20;;;;;;1699930;29;20633;-73
2022/10/11 06:33:41;;;;;;;21.37;17.00;;;16.30;97.20;;;;;;1700983;29;20611;-73
2022/10/11 06:34:31;;;;;;;24.55;18.08;;;16.30;97.20;;;;;;1701320;29;20219;-72
2022/10/11 06:35:23;;;;;;;23.50;17.70;;;16.30;97.20;;;;;;1701122;29;20282;-73
2022/10/11 06:36:15;;;;;;;21.67;16.67;;;16.30;97.20;;;;;;1701256;29;20203;-73
2022/10/11 06:37:07;;;;;;;26.60;17.58;;;16.30;97.20;;;;;;1701109;29;20234;-72
2022/10/11 06:37:57;;;;;;;25.08;16.90;;;16.30;97.20;;;;;;1701111;29;20218;-72
2022/10/11 06:38:51;;;;;;;26.53;18.43;;;16.30;97.20;;;;;;1701142;29;20203;-72
2022/10/11 06:39:42;;;;;;;20.63;18.25;;;16.30;97.20;;;;;;1700621;29;20211;-72
2022/10/11 06:40:34;;;;;;;22.57;17.57;;;16.30;97.20;;;;;;1701156;29;20222;-73
2022/10/11 06:41:26;;;;;;;26.40;17.80;;;16.20;97.20;;;;;;1701188;29;20580;-72
2022/10/11 06:42:18;;;;;;;21.25;17.55;;;16.30;97.20;;;;;;1701307;29;20573;-71
2022/10/11 06:43:09;;;;;;;21.45;18.20;;;16.30;97.20;;;;;;1701052;29;20208;-73
2022/10/11 06:44:00;;;;;;;22.13;17.27;;;16.30;97.20;;;;;;1701235;29;20215;-73
2022/10/11 06:44:51;;;;;;;24.40;18.27;;;16.30;97.20;;;;;;1701167;29;20250;-73
2022/10/11 06:45:43;;;;;;;27.27;16.80;;;16.30;97.20;;;;;;1701268;29;20247;-72
2022/10/11 06:46:33;;;;;;;20.33;17.05;;;16.30;97.20;;;;;;1701127;29;20214;-73
2022/10/11 06:47:25;;;;;;;18.37;16.37;;;16.30;97.20;;;;;;1700943;29;20290;-72
2022/10/11 06:48:16;;;;;;;21.45;18.02;;;16.30;97.20;;;;;;1701179;29;20215;-73
2022/10/11 06:49:09;;;;;;;21.67;17.43;;;16.30;97.20;;;;;;1701187;29;20203;-73
2022/10/11 06:50:00;;;;;;;22.08;16.90;;;16.30;97.20;;;;;;1700511;29;20226;-73
2022/10/11 06:50:51;;;;;;;24.10;18.00;;;16.30;97.20;;;;;;1701124;29;20222;-73
2022/10/11 06:51:42;;;;;;;21.25;17.02;;;16.30;97.20;;;;;;1701028;29;20569;-73
2022/10/11 06:52:34;;;;;;;23.53;17.83;;;16.30;97.20;;;;;;1701133;29;20563;-72
2022/10/11 06:53:24;;;;;;;23.05;18.63;;;16.30;97.20;;;;;;1700817;29;20708;-73
2022/10/11 06:54:16;;;;;;;20.80;17.73;;;16.30;97.20;;;;;;1701174;29;20883;-72
2022/10/11 06:55:08;;;;;;;21.70;18.17;;;16.30;97.20;;;;;;1701072;29;20203;-72
2022/10/11 06:56:03;;;;;;;23.45;18.30;;;16.30;97.20;;;;;;1700998;29;20255;-73
2022/10/11 06:56:54;;;;;;;20.95;16.90;;;16.30;97.20;;;;;;1700955;29;20219;-73
2022/10/11 06:57:45;;;;;;;23.70;17.30;;;16.30;97.20;;;;;;1700942;29;20199;-73
2022/10/11 06:58:37;;;;;;;23.73;17.55;;;16.30;97.20;;;;;;1701108;29;20223;-74
2022/10/11 06:59:28;;;;;;;20.02;17.75;;;16.40;97.20;;;;;;1701071;29;20258;-73
2022/10/11 07:00:19;;;;;;;24.80;18.80;;;16.40;97.20;;;;;;1700437;29;20665;-73
2022/10/11 07:01:15;;;;;;;24.30;19.03;;;16.40;97.20;;;;;;1701012;29;20556;-73
2022/10/11 07:02:06;;;;;;;20.05;17.95;;;16.40;97.20;;;;;;1701048;29;20459;-73
2022/10/11 07:02:57;;;;;;;25.38;17.77;;;16.40;97.20;;;;;;1701095;29;20211;-73
2022/10/11 07:03:50;;;;;;;21.80;17.05;;;16.40;97.20;;;;;;1700779;29;20199;-73
2022/10/11 07:04:43;;;;;;;22.33;17.67;;;16.40;97.20;;;;;;1701168;29;20612;-73
2022/10/11 07:05:34;;;;;;;24.95;18.92;;;16.40;97.20;;;;;;1701156;29;20219;-73
2022/10/11 07:06:28;;;;;;;26.20;17.97;;;16.40;97.20;;;;;;1701059;29;20217;-74
2022/10/11 07:07:18;;;;;;;22.70;17.95;;;16.40;97.20;;;;;;1700807;29;20226;-73
2022/10/11 07:08:10;;;;;;;22.77;18.80;;;16.40;97.20;;;;;;1701145;29;20203;-72
2022/10/11 07:09:01;;;;;;;23.83;18.90;;;16.40;97.20;;;;;;1701060;29;20277;-73
2022/10/11 07:09:53;;;;;;;24.47;16.90;;;16.40;97.20;;;;;;1700563;29;20207;-73
2022/10/11 07:10:43;;;;;;;24.90;19.95;;;16.40;97.20;;;;;;1700870;29;20235;-72
2022/10/11 07:11:35;;;;;;;21.70;18.03;;;16.40;97.20;;;;;;1701091;29;20218;-72
2022/10/11 07:12:27;;;;;;;28.27;18.00;;;16.40;97.20;;;;;;1700963;29;20199;-74
2022/10/11 07:13:19;;;;;;;26.88;17.45;;;16.40;97.20;;;;;;1700712;29;20265;-73
2022/10/11 07:14:10;;;;;;;21.55;18.08;;;16.40;97.20;;;;;;1700995;29;20207;-73
2022/10/11 07:15:01;;;;;;;25.30;18.90;;;16.40;97.20;;;;;;1701002;29;20658;-73
2022/10/11 07:15:52;;;;;;;24.20;17.70;;;16.40;97.20;;;;;;1700779;29;20684;-72
2022/10/11 07:16:44;;;;;;;26.50;18.40;;;16.40;97.20;;;;;;1700741;29;20646;-73
2022/10/11 07:17:35;;;;;;;23.83;17.00;;;16.40;97.20;;;;;;1700883;29;20458;-74
2022/10/11 07:18:26;;;;;;;25.13;18.10;;;16.40;97.20;;;;;;1700829;29;20211;-72
2022/10/11 07:19:17;;;;;;;22.10;18.00;;;16.40;97.20;;;;;;1700946;29;20207;-73
2022/10/11 07:20:11;;;;;;;24.47;19.70;;;16.40;97.20;;;;;;1700276;29;20209;-73
2022/10/11 07:21:04;;;;;;;33.85;18.30;;;16.40;97.20;;;;;;1700766;29;20586;-73
2022/10/11 07:21:56;;;;;;;27.30;19.75;;;16.40;97.20;;;;;;1701011;29;20211;-74
2022/10/11 07:22:47;;;;;;;22.48;17.50;;;16.40;97.20;;;;;;1700884;29;20214;-73
2022/10/11 07:23:39;;;;;;;25.37;18.67;;;16.40;97.20;;;;;;1700741;29;20199;-73
2022/10/11 07:24:30;;;;;;;22.63;17.80;;;16.40;97.20;;;;;;1700855;29;20227;-72
2022/10/11 07:25:21;;;;;;;22.63;18.03;;;16.40;97.20;;;;;;1700911;29;20213;-73
2022/10/11 07:26:12;;;;;;;26.23;18.50;;;16.40;97.20;;;;;;1701040;29;20203;-72
2022/10/11 07:27:04;;;;;;;25.97;19.00;;;16.40;97.20;;;;;;1700632;29;20680;-73
2022/10/11 07:27:55;;;;;;;23.60;19.08;;;16.40;97.20;;;;;;1701047;29;20211;-72
2022/10/11 07:28:47;;;;;;;25.70;18.80;;;16.40;97.20;;;;;;1700387;29;20203;-72
2022/10/11 07:29:37;;;;;;;28.05;19.77;;;16.40;97.20;;;;;;1700408;29;20247;-72
2022/10/11 07:30:29;;;;;;;21.30;17.83;;;16.40;97.20;;;;;;1700771;29;20335;-72
2022/10/11 07:31:22;;;;;;;24.42;18.75;;;16.40;97.20;;;;;;1698908;29;20215;-73
2022/10/11 07:32:15;;;;;;;21.27;17.63;;;16.40;97.20;;;;;;1694470;29;20192;-73
2022/10/11 07:33:06;;;;;;;23.80;17.75;;;16.40;97.20;;;;;;1694322;29;20211;-73
2022/10/11 07:33:57;;;;;;;22.70;17.53;;;16.40;97.20;;;;;;1694134;29;20211;-73
2022/10/11 07:34:48;;;;;;;25.23;17.50;;;16.40;97.20;;;;;;1694292;29;20452;-72
2022/10/11 07:35:41;;;;;;;25.33;17.47;;;16.40;97.20;;;;;;1694254;29;20200;-72
2022/10/11 07:36:32;;;;;;;22.38;18.83;;;16.40;97.20;;;;;;1694233;29;20230;-73
2022/10/11 07:37:24;;;;;;;20.10;17.80;;;16.40;97.20;;;;;;1694007;29;20210;-73
2022/10/11 07:38:15;;;;;;;19.55;17.48;;;16.40;97.20;;;;;;1694287;29;20211;-73
2022/10/11 07:39:08;;;;;;;25.98;17.90;;;16.40;97.20;;;;;;1694005;29;20204;-73
2022/10/11 07:39:59;;;;;;;25.00;17.52;;;16.40;97.20;;;;;;1693720;29;20347;-73
2022/10/11 07:40:50;;;;;;;20.27;17.20;;;16.40;97.20;;;;;;1694226;29;20279;-73
2022/10/11 07:41:41;;;;;;;29.80;18.83;;;16.40;97.20;;;;;;1694091;29;20226;-73
2022/10/11 07:42:33;;;;;;;27.27;18.37;;;16.40;97.20;;;;;;1694294;29;20204;-73
2022/10/11 07:43:24;;;;;;;21.25;17.88;;;16.40;97.20;;;;;;1693898;29;20211;-73
2022/10/11 07:44:16;;;;;;;24.03;18.77;;;16.40;97.20;;;;;;1694461;29;20212;-73
2022/10/11 07:45:07;;;;;;;27.42;19.00;;;16.40;97.20;;;;;;1694174;29;20207;-73
2022/10/11 07:46:02;;;;;;;20.95;17.08;;;16.40;97.20;;;;;;1694268;29;20695;-71
2022/10/11 07:46:53;;;;;;;28.48;18.88;;;16.40;97.20;;;;;;1694161;29;20653;-73
2022/10/11 07:47:45;;;;;;;24.80;18.73;;;16.40;97.20;;;;;;1694174;29;20681;-73
2022/10/11 07:48:36;;;;;;;19.20;17.02;;;16.40;97.20;;;;;;1694218;29;20682;-73
2022/10/11 07:49:28;;;;;;;24.17;18.20;;;16.40;97.20;;;;;;1694179;29;20196;-73
2022/10/11 07:50:18;;;;;;;22.35;17.58;;;16.40;97.20;;;;;;1693616;29;20224;-73
2022/10/11 07:51:13;;;;;;;20.37;17.37;;;16.40;97.20;;;;;;1694259;29;20224;-73
2022/10/11 07:52:04;;;;;;;22.33;18.70;;;16.40;97.20;;;;;;1694179;29;20219;-73
2022/10/11 07:52:56;;;;;;;33.75;18.95;;;16.40;97.20;;;;;;1694286;29;20671;-73
2022/10/11 07:53:49;;;;;;;29.27;17.95;;;16.40;97.20;;;;;;1693991;29;20211;-74
2022/10/11 07:54:41;;;;;;;25.45;18.80;;;16.40;97.20;;;;;;1694224;29;20997;-73
2022/10/11 07:55:34;;;;;;;24.73;19.58;;;16.40;97.20;;;;;;1694365;29;20584;-73
2022/10/11 07:56:27;;;;;;;23.17;18.92;;;16.40;97.20;;;;;;1694068;29;20227;-73
2022/10/11 07:57:18;;;;;;;23.88;18.15;;;16.40;97.20;;;;;;1694027;29;20211;-73
2022/10/11 07:58:12;;;;;;;24.00;17.43;;;16.40;97.20;;;;;;1694115;29;20287;-73
2022/10/11 07:59:03;;;;;;;25.40;19.88;;;16.40;97.20;;;;;;1694124;29;20225;-73
2022/10/11 07:59:55;;;;;;;25.48;18.50;;;16.40;97.20;;;;;;1693683;29;20775;-76
2022/10/11 08:00:52;;;;;;;29.10;18.58;;;16.50;97.20;;;;;;1694497;29;20737;-78
2022/10/11 08:01:44;;;;;;;28.50;19.85;;;16.50;97.20;;;;;;1694267;29;20301;-75
2022/10/11 08:02:34;;;;;;;22.00;17.58;;;16.50;97.20;;;;;;1694194;29;20253;-75
2022/10/11 08:03:26;;;;;;;26.17;18.90;;;16.50;97.20;;;;;;1693802;29;20215;-74
2022/10/11 08:04:20;;;;;;;22.40;18.80;;;16.50;97.20;;;;;;1694168;29;20254;-74
2022/10/11 08:05:10;;;;;;;22.42;19.17;;;16.50;97.20;;;;;;1694125;29;20212;-75
2022/10/11 08:06:04;;;;;;;20.30;16.70;;;16.50;97.20;;;;;;1693897;29;20294;-74
2022/10/11 08:06:56;;;;;;;24.75;18.13;;;16.50;97.20;;;;;;1694014;29;20215;-75
2022/10/11 08:07:48;;;;;;;27.88;19.65;;;16.50;97.20;;;;;;1693644;29;20713;-75
2022/10/11 08:08:38;;;;;;;20.38;18.13;;;16.60;97.20;;;;;;1693686;29;20276;-75
2022/10/11 08:09:31;;;;;;;23.23;19.03;;;16.60;97.20;;;;;;1693740;29;20216;-75
2022/10/11 08:10:21;;;;;;;20.50;17.70;;;16.60;97.20;;;;;;1692688;29;20211;-75
2022/10/11 08:11:21;;;;;;;26.33;18.40;;;16.60;97.20;;;;;;1693194;29;20191;-76
2022/10/11 08:12:11;;;;;;;22.40;18.85;;;16.60;97.20;;;;;;1690740;29;20212;-75
2022/10/11 08:13:03;;;;;;;21.47;17.87;;;16.60;97.20;;;;;;1692943;29;20196;-79
2022/10/11 08:13:54;;;;;;;29.65;18.92;;;16.60;97.20;;;;;;1693446;29;20459;-76
2022/10/11 08:14:46;;;;;;;26.52;19.20;;;16.60;97.20;;;;;;1693033;29;20235;-76
2022/10/11 08:15:37;;;;;;;28.30;19.35;;;16.60;97.20;;;;;;1693282;29;20207;-75
2022/10/11 08:16:28;;;;;;;27.47;18.83;;;16.60;97.20;;;;;;1693369;29;20220;-76
2022/10/11 08:17:19;;;;;;;24.08;19.75;;;16.60;97.20;;;;;;1693519;29;20211;-75
2022/10/11 08:18:11;;;;;;;23.43;18.93;;;16.60;97.20;;;;;;1693642;29;20202;-75
2022/10/11 08:19:02;;;;;;;20.58;17.70;;;16.60;97.20;;;;;;1693812;29;20596;-75
2022/10/11 08:19:53;;;;;;;24.98;18.05;;;16.60;97.20;;;;;;1693212;29;20207;-76
2022/10/11 08:20:44;;;;;;;23.63;19.17;;;16.60;97.20;;;;;;1693623;29;20226;-74
2022/10/11 08:21:36;;;;;;;28.33;19.30;;;16.60;97.20;;;;;;1694059;29;20200;-75
2022/10/11 08:22:29;;;;;;;23.08;18.85;;;16.60;97.20;;;;;;1694356;29;20211;-78
2022/10/11 08:23:21;;;;;;;25.25;21.30;;;16.60;97.20;;;;;;1695040;29;20346;-76
2022/10/11 08:24:12;;;;;;;22.83;19.98;;;16.60;97.20;;;;;;1691881;29;20203;-78
2022/10/11 08:25:05;;;;;;;22.52;19.95;;;16.60;97.20;;;;;;1695331;29;20208;-77
2022/10/11 08:25:57;;;;;;;22.25;18.50;;;16.60;97.20;;;;;;1695281;29;20218;-78
2022/10/11 08:26:48;;;;;;;24.20;19.55;;;16.60;97.20;;;;;;1693790;29;20615;-75
2022/10/11 08:27:39;;;;;;;23.08;19.48;;;16.60;97.20;;;;;;1696374;29;20199;-80
2022/10/11 08:28:31;;;;;;;23.57;19.63;;;16.70;97.20;;;;;;1696062;29;20206;-77
2022/10/11 08:29:22;;;;;;;22.35;19.80;;;16.70;97.20;;;;;;1694008;29;20207;-75
2022/10/11 08:30:14;;;;;;;22.83;18.90;;;16.70;97.20;;;;;;1694729;29;20203;-78
2022/10/11 08:31:05;;;;;;;23.58;20.23;;;16.70;97.20;;;;;;1694798;29;20676;-76
2022/10/11 08:31:57;;;;;;;22.48;18.65;;;16.70;97.20;;;;;;1687434;29;20224;-76
2022/10/11 08:32:48;;;;;;;22.05;19.52;;;16.70;97.20;;;;;;1687585;29;20201;-77
2022/10/11 08:33:40;;;;;;;28.50;20.30;;;16.70;97.20;;;;;;1688330;29;20214;-79
2022/10/11 08:34:31;;;;;;;20.25;18.15;;;16.70;97.20;;;;;;1688419;29;20211;-77
2022/10/11 08:35:22;;;;;;;23.00;18.90;;;16.80;97.20;;;;;;1687899;29;20218;-78
2022/10/11 08:36:13;;;;;;;24.65;19.65;;;16.80;97.20;;;;;;1687683;29;20205;-74
2022/10/11 08:37:05;;;;;;;22.80;19.73;;;16.80;97.20;;;;;;1687365;29;20204;-75
2022/10/11 08:37:57;;;;;;;26.00;19.08;;;16.80;97.20;;;;;;1687598;29;20208;-75
2022/10/11 08:38:49;;;;;;;21.30;17.88;;;16.80;97.20;;;;;;1687571;29;20208;-75
2022/10/11 08:39:39;;;;;;;19.58;16.95;;;16.80;97.20;;;;;;1686771;29;20196;-75
2022/10/11 08:40:31;;;;;;;22.87;18.37;;;16.80;97.20;;;;;;1687391;29;20204;-75
2022/10/11 08:41:31;;;;;;;22.15;18.85;;;16.80;97.20;;;;;;1687419;29;20675;-75
2022/10/11 08:42:27;;;;;;;23.23;19.95;;;16.80;97.20;;;;;;1687493;29;20213;-74
2022/10/11 08:43:31;;;;;;;25.65;20.23;;;16.80;97.20;;;;;;1687536;29;20553;-75
2022/10/11 08:44:35;;;;;;;26.50;20.17;;;16.80;97.20;;;;;;1687413;29;20209;-75
2022/10/11 08:45:32;;;;;;;23.90;18.70;;;16.80;97.20;;;;;;1687715;29;20607;-78
2022/10/11 08:46:27;;;;;;;22.05;19.05;;;16.80;97.20;;;;;;1687541;29;20189;-75
2022/10/11 08:47:22;;;;;;;26.35;20.50;;;16.80;97.20;;;;;;1687355;29;20248;-75
2022/10/11 08:48:16;;;;;;;23.35;19.55;;;16.80;97.20;;;;;;1687616;29;20671;-75
2022/10/11 08:49:11;;;;;;;23.52;18.25;;;16.80;97.20;;;;;;1687257;29;20303;-79
2022/10/11 08:50:04;;;;;;;23.05;18.52;;;16.80;97.20;;;;;;1686937;29;20672;-77
2022/10/11 08:50:57;;;;;;;22.38;19.17;;;16.80;97.20;;;;;;1687408;29;20228;-74
2022/10/11 08:51:54;;;;;;;26.23;19.23;;;16.80;97.20;;;;;;1687597;29;20201;-75
2022/10/11 08:52:50;;;;;;;23.70;20.10;;;16.80;97.20;;;;;;1687509;29;20279;-77
2022/10/11 08:53:49;;;;;;;22.90;19.77;;;16.80;97.20;;;;;;1687722;29;20268;-77
2022/10/11 08:54:45;;;;;;;24.73;20.27;;;16.80;97.20;;;;;;1688929;29;20197;-77
2022/10/11 08:55:42;;;;;;;21.13;19.05;;;16.80;97.20;;;;;;1688923;29;20587;-77
2022/10/11 08:56:37;;;;;;;23.58;18.45;;;16.80;97.20;;;;;;1688860;29;20189;-76
2022/10/11 08:57:31;;;;;;;22.88;17.80;;;16.80;97.20;;;;;;1688786;29;20204;-78
2022/10/11 08:58:29;;;;;;;25.80;19.10;;;16.80;97.20;;;;;;1688706;29;20263;-77
2022/10/11 08:59:29;;;;;;;24.27;19.73;;;16.80;97.20;;;;;;1688843;29;20328;-76
2022/10/11 09:00:21;;;;;;;26.45;18.23;;;16.80;97.20;;;;;;1687986;29;20654;-77
2022/10/11 09:01:16;;;;;;;22.98;18.98;;;16.80;97.20;;;;;;1688954;29;20208;-75
2022/10/11 09:02:21;;;;;;;21.15;18.73;;;16.80;97.20;;;;;;1688739;29;20204;-73
2022/10/11 09:03:26;;;;;;;25.10;19.05;;;16.80;97.20;;;;;;1688898;29;20189;-75
2022/10/11 09:04:17;;;;;;;21.73;19.48;;;16.80;97.20;;;;;;1689018;29;20205;-75
2022/10/11 09:05:13;;;;;;;32.90;18.67;;;16.80;97.20;;;;;;1688718;29;20689;-74
2022/10/11 09:06:13;;;;;;;22.20;19.15;;;16.80;97.20;;;;;;1688756;29;20208;-74
2022/10/11 09:07:13;;;;;;;26.83;18.70;;;16.80;97.20;;;;;;1688566;29;20326;-76
2022/10/11 09:08:10;;;;;;;23.90;19.52;;;16.80;97.20;;;;;;1688783;29;20208;-75
2022/10/11 09:09:17;;;;;;;25.73;20.00;;;16.80;97.20;;;;;;1688499;29;20212;-76
2022/10/11 09:10:36;;;;;;;30.30;19.00;;;16.80;97.20;;;;;;1688068;29;20646;-76
2022/10/11 09:11:40;;;;;;;21.90;19.60;;;16.80;97.20;;;;;;1688443;29;20195;-76
2022/10/11 09:12:41;;;;;;;22.45;18.92;;;16.80;97.20;;;;;;1688701;29;20201;-76
2022/10/11 09:13:56;;;;;;;22.48;18.90;;;16.80;97.20;;;;;;1688424;29;20703;-76
2022/10/11 09:15:11;;;;;;;26.80;19.92;;;16.80;97.20;;;;;;1688159;29;20216;-76
2022/10/11 09:16:11;;;;;;;27.70;19.02;;;16.80;97.20;;;;;;1688595;29;20250;-75
2022/10/11 09:17:09;;;;;;;22.08;18.40;;;16.80;97.20;;;;;;1688507;29;20240;-75
2022/10/11 09:18:24;;;;;;;23.27;19.38;;;16.80;97.20;;;;;;1688715;29;20204;-75
2022/10/11 09:19:28;;;;;;;29.88;19.42;;;16.80;97.20;;;;;;1688178;29;20592;-75
2022/10/11 09:20:29;;;;;;;24.58;19.13;;;16.80;97.20;;;;;;1687558;29;20204;-75
2022/10/11 09:21:32;;;;;;;23.33;17.98;;;16.80;97.20;;;;;;1688824;29;20671;-75
2022/10/11 09:22:32;;;;;;;22.00;17.83;;;16.80;97.20;;;;;;1688839;29;20205;-75
2022/10/11 09:23:42;;;;;;;22.23;19.90;;;16.80;97.20;;;;;;1688731;29;20240;-76
2022/10/11 09:24:51;;;;;;;28.23;20.23;;;16.80;97.20;;;;;;1688817;29;20664;-75
2022/10/11 09:25:48;;;;;;;33.20;19.75;;;16.80;97.20;;;;;;1688827;29;20235;-76
2022/10/11 09:26:48;;;;;;;24.95;19.52;;;16.80;97.20;;;;;;1688600;29;20280;-75
2022/10/11 09:27:43;;;;;;;24.00;18.90;;;16.80;97.20;;;;;;1688694;29;20193;-75
2022/10/11 09:28:47;;;;;;;22.95;19.15;;;16.80;97.20;;;;;;1688815;29;20284;-73
2022/10/11 09:29:53;;;;;;;29.90;20.50;;;16.80;97.20;;;;;;1688078;29;20204;-76